Time;durP1;ratioP1;P1;durP2;ratioP2;P2;SDS_P1;SDS_P2;PMS_P1;PMS_P2;Temp;Humidity;BMP_temperature;BMP_pressure;BME280_temperature;BME280_humidity;BME280_pressure;Samples;Min_cycle;Max_cycle;Signal;HPM_P1;HPM_P2
2022/09/02 00:01:15;;;;;;;1.75;1.00;;;18.90;68.00;;;;;;5062428;28;20198;-78
2022/09/02 00:03:43;;;;;;;2.10;0.98;;;18.90;67.60;;;;;;5043149;28;20191;-77
2022/09/02 00:06:11;;;;;;;3.70;1.20;;;18.90;69.00;;;;;;5046194;28;20198;-78
2022/09/02 00:08:39;;;;;;;1.60;1.50;;;18.70;69.40;;;;;;5062944;28;20583;-78
2022/09/02 00:11:08;;;;;;;2.15;1.08;;;18.90;70.00;;;;;;5042600;28;20195;-77
2022/09/02 00:13:36;;;;;;;3.88;1.20;;;18.90;70.90;;;;;;5041169;28;20195;-77
2022/09/02 00:16:05;;;;;;;1.52;1.17;;;18.80;70.60;;;;;;5058566;28;20839;-78
2022/09/02 00:18:34;;;;;;;2.70;1.20;;;18.80;70.70;;;;;;5048352;28;20217;-78
2022/09/02 00:21:02;;;;;;;1.55;1.20;;;18.70;71.50;;;;;;5036166;28;20210;-77
2022/09/02 00:23:29;;;;;;;2.08;1.10;;;18.70;71.90;;;;;;5047181;28;20199;-77
2022/09/02 00:25:57;;;;;;;4.32;1.35;;;18.70;71.80;;;;;;5050892;28;20202;-77
2022/09/02 00:28:25;;;;;;;3.40;1.15;;;18.70;71.70;;;;;;5044483;28;20222;-77
2022/09/02 00:30:52;;;;;;;1.77;1.10;;;18.70;72.30;;;;;;5060228;28;20535;-78
2022/09/02 00:33:21;;;;;;;1.48;0.93;;;18.60;72.70;;;;;;5065023;28;20203;-77
2022/09/02 00:35:50;;;;;;;1.27;0.98;;;18.70;73.30;;;;;;5049699;28;20186;-77
2022/09/02 00:38:17;;;;;;;1.75;1.00;;;18.70;73.80;;;;;;5047596;28;20223;-77
2022/09/02 00:40:46;;;;;;;3.22;1.00;;;18.80;73.70;;;;;;5063945;28;20198;-77
2022/09/02 00:43:24;;;;;;;1.50;1.20;;;18.60;73.80;;;;;;5050030;28;20199;-79
2022/09/02 00:45:52;;;;;;;1.52;1.00;;;18.60;74.50;;;;;;5059531;28;20194;-77
2022/09/02 00:48:21;;;;;;;4.13;1.60;;;18.60;74.90;;;;;;5056755;28;20226;-78
2022/09/02 00:50:49;;;;;;;1.60;1.15;;;18.50;76.30;;;;;;5047929;28;20205;-77
2022/09/02 00:53:18;;;;;;;2.38;1.50;;;18.50;76.90;;;;;;5063428;28;20691;-77
2022/09/02 00:55:51;;;;;;;1.95;1.15;;;18.30;78.10;;;;;;5050500;28;20198;-78
2022/09/02 00:58:23;;;;;;;1.60;1.30;;;18.20;78.60;;;;;;5043481;28;20225;-78
2022/09/02 01:00:55;;;;;;;3.20;1.00;;;18.30;79.40;;;;;;5041988;28;20680;-77
2022/09/02 01:03:31;;;;;;;2.83;1.20;;;18.40;79.60;;;;;;5050503;28;20202;-79
2022/09/02 01:06:00;;;;;;;2.42;1.20;;;18.30;79.40;;;;;;5060416;28;20209;-77
2022/09/02 01:08:32;;;;;;;1.60;1.27;;;18.40;79.50;;;;;;5045288;28;20225;-78
2022/09/02 01:11:01;;;;;;;1.92;1.25;;;18.30;79.70;;;;;;5056945;28;20211;-77
2022/09/02 01:13:32;;;;;;;1.15;1.05;;;18.40;79.50;;;;;;5038734;28;20203;-77
2022/09/02 01:16:13;;;;;;;2.13;1.10;;;18.50;79.60;;;;;;5046651;28;20202;-78
2022/09/02 01:18:45;;;;;;;2.65;1.08;;;18.60;78.50;;;;;;5061750;28;20229;-77
2022/09/02 01:21:13;;;;;;;3.53;1.08;;;18.60;78.00;;;;;;5045884;28;20198;-77
2022/09/02 01:23:41;;;;;;;2.10;1.00;;;18.40;79.30;;;;;;5060414;28;20199;-78
2022/09/02 01:26:10;;;;;;;6.57;1.20;;;18.30;79.90;;;;;;5044670;28;20198;-78
2022/09/02 01:28:38;;;;;;;4.10;1.15;;;18.20;80.90;;;;;;5044445;28;20222;-78
2022/09/02 01:31:06;;;;;;;4.15;1.20;;;18.10;81.40;;;;;;5063527;28;20202;-77
2022/09/02 01:33:33;;;;;;;1.85;1.10;;;18.20;81.10;;;;;;5045229;28;20202;-77
2022/09/02 01:36:03;;;;;;;3.53;1.38;;;18.20;81.90;;;;;;5042201;28;20202;-77
2022/09/02 01:38:31;;;;;;;2.35;1.27;;;18.20;81.90;;;;;;5042246;28;20222;-78
2022/09/02 01:41:00;;;;;;;2.38;1.13;;;18.20;81.90;;;;;;5047451;28;20201;-77
2022/09/02 01:43:28;;;;;;;1.77;1.10;;;18.20;81.80;;;;;;5063261;28;20198;-77
2022/09/02 01:45:58;;;;;;;1.63;1.20;;;18.10;82.10;;;;;;5046027;28;20202;-77
2022/09/02 01:48:28;;;;;;;2.40;1.45;;;18.20;82.30;;;;;;5046414;28;20229;-77
2022/09/02 01:50:59;;;;;;;2.30;1.30;;;18.10;82.80;;;;;;5066780;28;20226;-78
2022/09/02 01:53:28;;;;;;;1.25;1.13;;;18.00;83.30;;;;;;5061537;28;20194;-77
2022/09/02 01:56:00;;;;;;;3.08;1.50;;;17.90;83.90;;;;;;5059182;28;20214;-77
2022/09/02 01:58:30;;;;;;;1.50;1.40;;;17.80;84.80;;;;;;5064470;28;21232;-77
2022/09/02 02:00:57;;;;;;;2.53;1.48;;;17.80;85.70;;;;;;5064110;28;20205;-77
2022/09/02 02:03:25;;;;;;;1.52;1.42;;;17.60;86.60;;;;;;5060113;28;20680;-79
2022/09/02 02:05:52;;;;;;;1.42;1.33;;;17.50;88.00;;;;;;5060834;28;20198;-78
2022/09/02 02:08:22;;;;;;;1.95;1.35;;;17.50;88.30;;;;;;5048076;28;20245;-78
2022/09/02 02:10:51;;;;;;;3.40;1.40;;;17.50;88.50;;;;;;5058735;28;20222;-77
2022/09/02 02:13:20;;;;;;;1.90;1.42;;;17.50;88.60;;;;;;5057197;28;20210;-77
2022/09/02 02:15:47;;;;;;;1.30;1.20;;;17.50;88.80;;;;;;5046299;28;20202;-78
2022/09/02 02:18:16;;;;;;;2.75;1.08;;;17.50;88.50;;;;;;5044324;28;20223;-78
2022/09/02 02:20:43;;;;;;;3.13;1.65;;;17.50;88.90;;;;;;5042928;28;20814;-78
2022/09/02 02:23:10;;;;;;;2.38;1.30;;;17.40;88.80;;;;;;5047011;28;20202;-78
2022/09/02 02:25:39;;;;;;;1.42;1.33;;;17.30;88.50;;;;;;5038316;28;20191;-78
2022/09/02 02:28:06;;;;;;;1.27;0.98;;;17.30;89.10;;;;;;5063290;28;20222;-77
2022/09/02 02:30:35;;;;;;;3.50;1.20;;;17.30;89.40;;;;;;5055884;28;20214;-77
2022/09/02 02:33:04;;;;;;;2.78;1.30;;;17.20;88.90;;;;;;5046427;28;20205;-78
2022/09/02 02:35:31;;;;;;;1.55;1.38;;;17.30;89.20;;;;;;5056259;28;20687;-78
2022/09/02 02:37:59;;;;;;;2.70;1.20;;;17.30;88.50;;;;;;5060651;28;20198;-77
2022/09/02 02:40:26;;;;;;;2.97;1.20;;;17.40;88.40;;;;;;5042955;28;20183;-78
2022/09/02 02:42:54;;;;;;;2.25;1.45;;;17.30;89.00;;;;;;5061472;28;20202;-78
2022/09/02 02:45:24;;;;;;;1.17;1.08;;;17.30;88.20;;;;;;5044527;28;20206;-77
2022/09/02 02:47:54;;;;;;;1.52;1.10;;;17.20;88.90;;;;;;5038797;28;20194;-78
2022/09/02 02:50:24;;;;;;;1.58;1.20;;;17.40;88.70;;;;;;5045259;28;20218;-78
2022/09/02 02:52:53;;;;;;;1.40;1.20;;;17.40;88.40;;;;;;5059025;28;20202;-79
2022/09/02 02:55:23;;;;;;;1.30;0.98;;;17.60;87.50;;;;;;5046415;28;20201;-78
2022/09/02 02:57:51;;;;;;;2.97;1.27;;;17.70;86.80;;;;;;5041554;28;20210;-78
2022/09/02 03:00:23;;;;;;;1.02;0.93;;;17.70;86.70;;;;;;5048317;28;20553;-77
2022/09/02 03:02:50;;;;;;;2.63;1.15;;;17.60;86.40;;;;;;5047366;28;21165;-77
2022/09/02 03:05:22;;;;;;;2.72;1.42;;;17.70;86.50;;;;;;5047555;28;20199;-78
2022/09/02 03:07:51;;;;;;;2.20;1.20;;;17.50;87.30;;;;;;5045702;28;20190;-78
2022/09/02 03:10:19;;;;;;;3.65;1.20;;;17.40;87.70;;;;;;5062125;28;20210;-77
2022/09/02 03:12:47;;;;;;;2.72;1.05;;;17.30;88.20;;;;;;5061004;28;20190;-77
2022/09/02 03:15:19;;;;;;;2.47;1.20;;;17.20;88.60;;;;;;5061635;28;20199;-77
2022/09/02 03:17:50;;;;;;;1.13;1.00;;;17.30;88.60;;;;;;5065010;28;20198;-78
2022/09/02 03:20:19;;;;;;;2.22;1.05;;;17.40;88.50;;;;;;5060161;28;20685;-77
2022/09/02 03:22:55;;;;;;;2.80;1.33;;;17.30;88.10;;;;;;5046773;28;20195;-77
2022/09/02 03:25:23;;;;;;;1.33;0.90;;;17.40;88.50;;;;;;5064480;28;20187;-77
2022/09/02 03:27:54;;;;;;;1.05;0.77;;;17.40;88.00;;;;;;5062604;28;20205;-77
2022/09/02 03:30:32;;;;;;;1.20;0.90;;;17.10;88.90;;;;;;5043594;28;20206;-77
2022/09/02 03:33:01;;;;;;;2.88;1.25;;;17.30;87.90;;;;;;5044250;28;20202;-77
2022/09/02 03:35:29;;;;;;;1.25;1.00;;;17.30;88.60;;;;;;5043116;28;20217;-77
2022/09/02 03:38:01;;;;;;;1.45;1.00;;;17.30;88.10;;;;;;5046698;28;20792;-77
2022/09/02 03:40:29;;;;;;;4.75;1.42;;;17.30;88.60;;;;;;5044689;28;20205;-77
2022/09/02 03:42:57;;;;;;;2.72;0.90;;;17.30;87.90;;;;;;5055884;28;20541;-77
2022/09/02 03:45:25;;;;;;;3.95;1.00;;;17.20;88.60;;;;;;5045855;28;20206;-77
2022/09/02 03:47:53;;;;;;;1.00;0.90;;;17.20;88.60;;;;;;5045254;28;20198;-77
2022/09/02 03:50:28;;;;;;;1.80;1.00;;;17.20;88.50;;;;;;5048600;28;20226;-77
2022/09/02 03:52:57;;;;;;;2.97;0.75;;;17.30;88.40;;;;;;5052942;28;20206;-77
2022/09/02 03:55:27;;;;;;;1.05;0.93;;;17.30;88.00;;;;;;5046984;28;20233;-77
2022/09/02 03:57:55;;;;;;;2.30;1.10;;;17.30;88.20;;;;;;5041966;28;20210;-77
2022/09/02 04:00:27;;;;;;;2.00;1.02;;;17.20;88.70;;;;;;5067740;28;20209;-78
2022/09/02 04:02:56;;;;;;;1.58;1.00;;;17.00;88.50;;;;;;5051604;28;20672;-79
2022/09/02 04:05:24;;;;;;;2.72;1.30;;;16.90;90.10;;;;;;5046311;28;20194;-78
2022/09/02 04:07:55;;;;;;;1.02;0.73;;;17.00;89.90;;;;;;5047194;28;20190;-79
2022/09/02 04:10:25;;;;;;;3.05;0.82;;;17.00;90.10;;;;;;5045711;28;20210;-79
2022/09/02 04:12:53;;;;;;;1.52;1.00;;;17.00;89.10;;;;;;5064280;28;20190;-79
2022/09/02 04:15:21;;;;;;;3.20;1.65;;;17.00;89.40;;;;;;5055499;28;20657;-79
2022/09/02 04:17:51;;;;;;;1.60;1.27;;;17.10;89.50;;;;;;5061883;28;20581;-79
2022/09/02 04:20:21;;;;;;;3.45;1.30;;;17.10;89.10;;;;;;5046188;28;20202;-79
2022/09/02 04:22:49;;;;;;;1.52;1.10;;;17.10;89.20;;;;;;5050898;28;20190;-79
2022/09/02 04:25:17;;;;;;;2.05;1.23;;;16.90;90.00;;;;;;5062845;28;20194;-79
2022/09/02 04:27:48;;;;;;;2.58;1.40;;;17.10;90.00;;;;;;5042033;28;20555;-77
2022/09/02 04:30:17;;;;;;;3.47;1.30;;;17.10;90.00;;;;;;5063168;28;20201;-77
2022/09/02 04:32:46;;;;;;;2.10;1.40;;;17.10;89.90;;;;;;5045591;28;20194;-77
2022/09/02 04:35:14;;;;;;;1.50;1.40;;;16.90;90.20;;;;;;5063546;28;20191;-77
2022/09/02 04:37:42;;;;;;;2.55;1.35;;;17.20;90.00;;;;;;5059632;28;20206;-77
2022/09/02 04:40:11;;;;;;;1.60;1.30;;;17.00;89.60;;;;;;5047516;28;20194;-77
2022/09/02 04:42:38;;;;;;;1.88;1.15;;;17.10;89.80;;;;;;5046489;28;20581;-77
2022/09/02 04:45:10;;;;;;;4.00;1.80;;;17.10;89.90;;;;;;5066035;28;20197;-77
2022/09/02 04:47:40;;;;;;;3.30;1.38;;;17.10;89.90;;;;;;5061770;28;20206;-77
2022/09/02 04:50:09;;;;;;;3.13;1.38;;;17.10;90.10;;;;;;5064795;28;20202;-76
2022/09/02 04:52:38;;;;;;;4.65;1.60;;;17.00;90.20;;;;;;5046442;28;20268;-76
2022/09/02 04:55:06;;;;;;;3.42;1.40;;;16.80;90.70;;;;;;5045023;28;20201;-76
2022/09/02 04:57:35;;;;;;;2.30;1.40;;;16.90;90.80;;;;;;5049826;28;20193;-76
2022/09/02 05:00:07;;;;;;;2.20;1.45;;;16.90;90.40;;;;;;5066245;28;20234;-77
2022/09/02 05:02:37;;;;;;;4.65;1.70;;;16.80;91.10;;;;;;5066105;28;20202;-77
2022/09/02 05:05:10;;;;;;;3.85;1.73;;;16.80;90.90;;;;;;5064520;28;20195;-77
2022/09/02 05:07:40;;;;;;;3.95;1.58;;;16.90;90.80;;;;;;5054039;28;20554;-76
2022/09/02 05:10:11;;;;;;;2.63;1.70;;;17.00;90.90;;;;;;5047118;28;20210;-79
2022/09/02 05:12:46;;;;;;;2.67;1.35;;;16.80;91.10;;;;;;5050712;28;20219;-78
2022/09/02 05:15:13;;;;;;;4.93;1.80;;;16.90;90.90;;;;;;5064887;28;20569;-77
2022/09/02 05:17:45;;;;;;;2.75;1.42;;;16.90;90.80;;;;;;5065501;28;20203;-78
2022/09/02 05:20:17;;;;;;;4.70;1.95;;;16.90;90.90;;;;;;5042006;28;20206;-78
2022/09/02 05:22:46;;;;;;;3.08;1.60;;;16.90;91.00;;;;;;5049867;28;20210;-78
2022/09/02 05:25:27;;;;;;;5.07;2.20;;;16.90;91.10;;;;;;5050240;28;20206;-78
2022/09/02 05:27:55;;;;;;;2.88;1.95;;;16.90;90.80;;;;;;5043146;28;20241;-78
2022/09/02 05:30:25;;;;;;;4.47;2.03;;;16.90;90.90;;;;;;5057199;28;20208;-78
2022/09/02 05:32:55;;;;;;;5.10;1.52;;;17.00;90.70;;;;;;5064797;28;20226;-78
2022/09/02 05:35:42;;;;;;;1.70;1.27;;;17.00;90.70;;;;;;5059544;28;20195;-78
2022/09/02 05:38:10;;;;;;;3.53;1.85;;;16.90;91.30;;;;;;5044477;28;20708;-77
2022/09/02 05:40:40;;;;;;;3.58;1.50;;;16.80;91.20;;;;;;5065466;28;20625;-77
2022/09/02 05:43:18;;;;;;;4.72;1.88;;;16.80;91.50;;;;;;5041911;28;20661;-77
2022/09/02 05:45:58;;;;;;;3.58;1.88;;;17.00;91.30;;;;;;5046945;28;20190;-77
2022/09/02 05:51:13;;;;;;;2.83;1.38;;;17.20;91.10;;;;;;5045934;28;20583;-78
2022/09/02 05:53:41;;;;;;;3.38;1.70;;;17.20;91.10;;;;;;5062232;28;20198;-78
2022/09/02 05:56:10;;;;;;;3.95;1.50;;;17.30;90.80;;;;;;5060823;28;20198;-78
2022/09/02 05:58:38;;;;;;;4.32;1.58;;;17.30;91.00;;;;;;5043478;28;20697;-79
2022/09/02 06:01:10;;;;;;;5.50;1.55;;;17.40;90.80;;;;;;5062461;28;20206;-78
2022/09/02 06:03:40;;;;;;;1.95;1.23;;;17.40;90.60;;;;;;5058525;28;20648;-77
2022/09/02 06:06:08;;;;;;;3.08;1.65;;;17.50;90.90;;;;;;5044123;28;20197;-77
2022/09/02 06:08:39;;;;;;;2.72;1.95;;;17.40;90.90;;;;;;5046243;28;20210;-77
2022/09/02 06:11:10;;;;;;;3.55;1.60;;;17.30;91.00;;;;;;5044018;28;20202;-77
2022/09/02 06:13:40;;;;;;;2.30;1.35;;;17.20;91.10;;;;;;5047894;28;20203;-77
2022/09/02 06:16:10;;;;;;;3.53;1.40;;;17.20;91.50;;;;;;5049524;28;20198;-77
2022/09/02 06:18:43;;;;;;;2.20;1.38;;;17.20;91.30;;;;;;5051031;28;20217;-78
2022/09/02 06:21:12;;;;;;;3.17;1.45;;;17.20;91.50;;;;;;5063071;28;20213;-77
2022/09/02 06:23:44;;;;;;;2.08;1.38;;;17.00;91.60;;;;;;5052358;28;20191;-77
2022/09/02 06:26:14;;;;;;;4.82;1.67;;;17.20;91.50;;;;;;5050348;28;20234;-77
2022/09/02 06:28:42;;;;;;;4.93;1.70;;;17.20;91.50;;;;;;5044133;28;20227;-77
2022/09/02 06:31:13;;;;;;;5.57;1.50;;;17.20;91.90;;;;;;5045636;28;20201;-77
2022/09/02 06:33:43;;;;;;;3.65;1.40;;;17.20;91.90;;;;;;5047995;28;20202;-77
2022/09/02 06:36:14;;;;;;;2.03;1.30;;;17.30;91.80;;;;;;5045538;28;20209;-78
2022/09/02 06:38:45;;;;;;;2.00;1.40;;;17.40;91.70;;;;;;5043761;28;20225;-78
2022/09/02 06:41:14;;;;;;;6.72;1.58;;;17.40;91.70;;;;;;5066452;28;20203;-78
2022/09/02 06:43:44;;;;;;;2.78;1.98;;;17.40;91.70;;;;;;5061303;28;20206;-78
2022/09/02 06:46:19;;;;;;;4.28;1.58;;;17.50;91.60;;;;;;5045141;28;20210;-78
2022/09/02 06:48:51;;;;;;;5.78;1.67;;;17.50;91.50;;;;;;5038334;28;20222;-78
2022/09/02 06:51:22;;;;;;;5.38;1.60;;;17.60;91.90;;;;;;5058442;28;20190;-78
2022/09/02 06:53:52;;;;;;;5.57;2.33;;;17.70;91.90;;;;;;5041053;28;20202;-78
2022/09/02 06:56:21;;;;;;;4.32;2.03;;;17.60;92.10;;;;;;5050101;28;20205;-78
2022/09/02 06:58:49;;;;;;;2.67;1.95;;;17.70;92.10;;;;;;5061604;28;20225;-78
2022/09/02 07:01:20;;;;;;;2.35;1.55;;;17.80;92.30;;;;;;5046340;28;20194;-78
2022/09/02 07:06:36;;;;;;;2.80;1.50;;;18.10;91.60;;;;;;5051401;28;20201;-77
2022/09/02 07:09:05;;;;;;;2.42;1.48;;;18.00;91.90;;;;;;5043405;28;20218;-77
2022/09/02 07:11:34;;;;;;;3.08;1.67;;;17.90;91.80;;;;;;5045310;28;20205;-77
2022/09/02 07:14:06;;;;;;;4.20;1.60;;;17.80;92.10;;;;;;5042624;28;20194;-76
2022/09/02 07:16:37;;;;;;;5.35;2.92;;;17.90;92.50;;;;;;5045213;28;20198;-76
2022/09/02 07:19:06;;;;;;;3.50;1.73;;;18.00;92.20;;;;;;5063683;28;20242;-77
2022/09/02 07:21:35;;;;;;;4.53;1.80;;;18.10;92.20;;;;;;5038436;28;20214;-77
2022/09/02 07:24:03;;;;;;;6.25;1.73;;;18.10;92.40;;;;;;5052705;28;20229;-77
2022/09/02 07:26:30;;;;;;;5.32;1.85;;;18.00;92.50;;;;;;5043551;28;20202;-77
2022/09/02 07:28:58;;;;;;;2.55;1.40;;;18.20;92.10;;;;;;5037473;28;20222;-75
2022/09/02 07:31:28;;;;;;;6.70;2.20;;;18.40;91.90;;;;;;5041073;28;20203;-77
2022/09/02 07:33:57;;;;;;;3.60;1.73;;;18.60;91.40;;;;;;5043902;28;20229;-78
2022/09/02 07:36:35;;;;;;;2.47;1.42;;;18.40;91.60;;;;;;5047510;28;20209;-78
2022/09/02 07:39:07;;;;;;;3.60;3.05;;;18.60;91.60;;;;;;5045496;28;20234;-77
2022/09/02 07:41:36;;;;;;;3.08;1.50;;;18.80;91.50;;;;;;5068970;28;20656;-78
2022/09/02 07:44:05;;;;;;;2.78;1.50;;;19.00;90.90;;;;;;5048619;28;20198;-77
2022/09/02 07:46:38;;;;;;;2.67;1.40;;;19.40;90.50;;;;;;5045564;28;20574;-77
2022/09/02 07:49:12;;;;;;;4.32;1.70;;;19.50;89.70;;;;;;5057636;28;20218;-77
2022/09/02 07:51:43;;;;;;;3.22;1.58;;;19.70;89.80;;;;;;5039453;28;20198;-77
2022/09/02 07:54:12;;;;;;;9.85;1.95;;;19.90;89.00;;;;;;5062185;28;20221;-77
2022/09/02 07:56:42;;;;;;;5.68;1.90;;;20.00;88.40;;;;;;5060199;28;20207;-79
2022/09/02 07:59:11;;;;;;;4.03;2.20;;;20.00;88.60;;;;;;5042648;28;20218;-77
2022/09/02 08:01:39;;;;;;;5.57;1.98;;;20.00;89.00;;;;;;5044097;28;20209;-77
2022/09/02 08:04:07;;;;;;;6.45;1.80;;;19.50;90.10;;;;;;5043255;28;20205;-77
2022/09/02 08:06:36;;;;;;;2.97;1.42;;;19.60;90.30;;;;;;5044399;28;20209;-77
2022/09/02 08:09:10;;;;;;;3.30;1.80;;;19.70;90.10;;;;;;5037278;28;20230;-77
2022/09/02 08:11:38;;;;;;;1.63;1.35;;;19.90;90.30;;;;;;5041117;28;20580;-77
2022/09/02 08:14:06;;;;;;;3.63;1.65;;;19.90;90.30;;;;;;5042343;28;20600;-77
2022/09/02 08:16:34;;;;;;;2.88;1.58;;;19.90;88.70;;;;;;5040499;28;20201;-77
2022/09/02 08:19:01;;;;;;;3.67;1.75;;;19.90;89.90;;;;;;5041676;28;20230;-77
2022/09/02 08:21:29;;;;;;;6.00;1.85;;;20.00;89.60;;;;;;5039217;28;20210;-77
2022/09/02 08:23:57;;;;;;;5.07;1.67;;;20.10;88.40;;;;;;5039617;28;20205;-77
2022/09/02 08:26:27;;;;;;;4.68;1.70;;;20.10;87.90;;;;;;5037213;28;20206;-77
2022/09/02 08:28:54;;;;;;;7.00;2.10;;;20.00;88.50;;;;;;5036703;28;20237;-77
2022/09/02 08:31:22;;;;;;;2.90;1.63;;;20.10;88.40;;;;;;5039496;28;20214;-77
2022/09/02 08:33:49;;;;;;;4.25;1.90;;;20.00;88.40;;;;;;5035237;28;20227;-78
2022/09/02 08:36:17;;;;;;;2.47;1.40;;;20.10;88.30;;;;;;5058867;28;20556;-77
2022/09/02 08:38:44;;;;;;;6.93;1.95;;;20.30;89.00;;;;;;5040325;28;20226;-77
2022/09/02 08:41:25;;;;;;;2.78;2.00;;;20.50;88.70;;;;;;5060835;28;20199;-77
2022/09/02 08:43:57;;;;;;;5.82;1.85;;;20.60;89.00;;;;;;5038251;28;20198;-77
2022/09/02 08:46:27;;;;;;;6.90;1.85;;;20.70;88.50;;;;;;5041218;28;20200;-77
2022/09/02 08:48:59;;;;;;;4.20;1.92;;;20.70;88.20;;;;;;5054509;28;20230;-77
2022/09/02 08:51:32;;;;;;;9.27;2.13;;;20.80;88.40;;;;;;5051031;28;20194;-78
2022/09/02 08:54:05;;;;;;;3.63;2.13;;;20.60;88.60;;;;;;5053064;28;20588;-77
2022/09/02 08:56:32;;;;;;;4.68;2.15;;;20.70;89.50;;;;;;5053828;28;20221;-77
2022/09/02 08:59:03;;;;;;;4.05;2.30;;;20.70;89.80;;;;;;5037650;28;20223;-77
2022/09/02 09:01:43;;;;;;;6.32;2.40;;;20.90;89.20;;;;;;5039463;28;20198;-78
2022/09/02 09:04:21;;;;;;;3.65;1.80;;;21.10;89.10;;;;;;5039268;28;20182;-78
2022/09/02 09:07:16;;;;;;;4.30;2.30;;;21.10;88.40;;;;;;5055147;28;20206;-78
2022/09/02 09:09:59;;;;;;;2.47;1.80;;;21.10;87.70;;;;;;5056264;28;20227;-77
2022/09/02 09:12:37;;;;;;;4.20;2.10;;;21.20;87.30;;;;;;5038283;28;20203;-78
2022/09/02 09:15:12;;;;;;;3.90;2.35;;;21.40;87.30;;;;;;5039031;28;20202;-78
2022/09/02 09:17:45;;;;;;;3.67;1.90;;;21.40;87.60;;;;;;5039744;28;20201;-78
2022/09/02 09:20:18;;;;;;;4.25;2.20;;;21.40;88.00;;;;;;5038499;28;20214;-78
2022/09/02 09:22:47;;;;;;;5.03;2.63;;;21.50;88.30;;;;;;5039557;28;20203;-78
2022/09/02 09:25:17;;;;;;;5.03;1.90;;;21.60;86.60;;;;;;5037482;28;20214;-78
2022/09/02 09:27:45;;;;;;;4.72;2.10;;;21.40;87.50;;;;;;5038103;28;20783;-78
2022/09/02 09:30:15;;;;;;;4.03;1.90;;;21.60;87.60;;;;;;5035752;28;20202;-78
2022/09/02 09:32:47;;;;;;;4.88;2.15;;;21.70;87.00;;;;;;5056540;28;20186;-78
2022/09/02 09:35:16;;;;;;;3.97;1.88;;;21.70;86.60;;;;;;5053800;28;20207;-78
2022/09/02 09:37:46;;;;;;;2.60;2.08;;;21.80;85.80;;;;;;5034764;28;20206;-78
2022/09/02 09:40:30;;;;;;;5.57;2.03;;;21.50;86.00;;;;;;5038749;28;21829;-78
2022/09/02 09:43:00;;;;;;;5.72;2.40;;;21.70;85.50;;;;;;5043234;28;20198;-81
2022/09/02 09:45:34;;;;;;;2.72;1.63;;;21.70;86.00;;;;;;5055665;28;20198;-79
2022/09/02 09:48:21;;;;;;;4.95;2.47;;;21.90;85.00;;;;;;5056685;28;20202;-79
2022/09/02 09:51:13;;;;;;;4.22;2.05;;;21.80;85.00;;;;;;5042055;28;20692;-79
2022/09/02 09:54:21;;;;;;;2.92;1.88;;;21.90;85.40;;;;;;5040305;28;20210;-80
2022/09/02 09:56:49;;;;;;;5.57;1.90;;;22.00;84.90;;;;;;5049404;28;20629;-79
2022/09/02 09:59:37;;;;;;;3.72;1.98;;;22.30;83.70;;;;;;5043618;28;20223;-77
2022/09/02 10:02:39;;;;;;;;;;;;;;;;;;;;;
2022/09/02 10:05:48;;;;;;;2.75;1.90;;;22.50;83.00;;;;;;5038423;28;20202;-78
2022/09/02 10:08:30;;;;;;;5.90;1.90;;;22.60;83.30;;;;;;5049551;28;20225;-78
2022/09/02 10:11:00;;;;;;;2.08;1.88;;;22.80;83.20;;;;;;5042616;28;20220;-78
2022/09/02 10:13:32;;;;;;;3.20;2.10;;;22.70;82.20;;;;;;5041608;28;20210;-79
2022/09/02 10:16:15;;;;;;;3.17;2.03;;;22.90;82.20;;;;;;5043746;28;20205;-77
2022/09/02 10:18:50;;;;;;;3.78;1.95;;;22.90;81.70;;;;;;5041078;28;20233;-78
2022/09/02 10:21:35;;;;;;;2.22;1.80;;;23.00;80.30;;;;;;5036767;28;20212;-79
2022/09/02 10:24:15;;;;;;;4.18;1.92;;;23.30;79.60;;;;;;5060383;28;20597;-78
2022/09/02 10:26:49;;;;;;;3.10;1.83;;;23.10;77.30;;;;;;5038014;28;20206;-76
2022/09/02 10:29:51;;;;;;;1.70;1.60;;;23.30;78.50;;;;;;5045430;28;20222;-77
2022/09/02 10:32:33;;;;;;;6.07;2.03;;;23.40;76.60;;;;;;4989014;28;20206;-77
2022/09/02 10:35:10;;;;;;;3.75;2.10;;;23.60;77.30;;;;;;5044730;28;20278;-77
2022/09/02 10:37:45;;;;;;;4.60;1.73;;;23.70;77.20;;;;;;5050944;28;20213;-77
2022/09/02 10:40:18;;;;;;;4.97;2.08;;;23.80;76.10;;;;;;5046847;28;20199;-77
2022/09/02 10:42:58;;;;;;;4.25;1.77;;;24.00;74.90;;;;;;5036784;28;20191;-77
2022/09/02 10:45:34;;;;;;;5.15;1.85;;;24.20;74.60;;;;;;5034956;28;20550;-77
2022/09/02 10:48:16;;;;;;;2.83;1.77;;;24.40;74.10;;;;;;5062058;28;20551;-77
2022/09/02 10:54:43;;;;;;;4.82;1.60;;;24.20;72.10;;;;;;5048211;28;20193;-77
2022/09/02 10:57:18;;;;;;;4.80;2.42;;;24.10;73.60;;;;;;5047192;28;20201;-77
2022/09/02 10:59:52;;;;;;;4.53;2.13;;;23.90;74.00;;;;;;5045006;28;20214;-77
2022/09/02 11:02:25;;;;;;;4.40;1.70;;;23.80;73.30;;;;;;5043571;28;20213;-77
2022/09/02 11:04:58;;;;;;;4.07;2.03;;;23.80;72.90;;;;;;5042015;28;20202;-77
2022/09/02 11:07:30;;;;;;;4.22;1.90;;;23.90;73.90;;;;;;5049059;28;20205;-77
2022/09/02 11:10:05;;;;;;;2.67;1.85;;;24.00;72.70;;;;;;5065745;28;20222;-78
2022/09/02 11:12:38;;;;;;;4.05;1.58;;;24.10;71.20;;;;;;5052846;28;20209;-78
2022/09/02 11:15:12;;;;;;;6.90;2.45;;;24.10;69.90;;;;;;5065550;28;20207;-78
2022/09/02 11:17:46;;;;;;;2.53;1.80;;;23.90;70.10;;;;;;5046941;28;20205;-77
2022/09/02 11:20:22;;;;;;;2.38;1.90;;;24.00;69.90;;;;;;5043153;28;20195;-77
2022/09/02 11:23:04;;;;;;;4.22;2.17;;;23.90;70.10;;;;;;5041469;28;20671;-78
2022/09/02 11:25:39;;;;;;;3.90;1.80;;;24.10;70.20;;;;;;5044024;28;20194;-78
2022/09/02 11:28:28;;;;;;;2.90;1.75;;;24.10;68.20;;;;;;5044763;28;20230;-78
2022/09/02 11:31:02;;;;;;;3.40;1.95;;;24.00;66.30;;;;;;5055819;28;20202;-78
2022/09/02 11:33:43;;;;;;;3.20;2.17;;;24.20;63.50;;;;;;5042102;28;20194;-78
2022/09/02 11:36:11;;;;;;;3.05;1.65;;;24.40;61.00;;;;;;5056909;28;20664;-78
2022/09/02 11:38:43;;;;;;;3.17;1.80;;;24.70;59.10;;;;;;5057464;28;20236;-78
2022/09/02 11:41:26;;;;;;;2.63;1.67;;;24.60;55.00;;;;;;5053508;28;20673;-77
2022/09/02 11:44:00;;;;;;;2.40;2.05;;;24.80;55.20;;;;;;5059734;28;20652;-77
2022/09/02 11:47:09;;;;;;;4.65;2.00;;;24.50;55.40;;;;;;5051593;28;20206;-77
2022/09/02 11:50:08;;;;;;;2.80;2.08;;;24.60;55.80;;;;;;5022599;28;20218;-77
2022/09/02 11:52:57;;;;;;;4.57;2.28;;;24.50;55.30;;;;;;5058451;28;20195;-78
2022/09/02 11:55:31;;;;;;;2.55;1.67;;;24.40;54.50;;;;;;5038587;28;20242;-78
2022/09/02 11:57:59;;;;;;;3.03;1.67;;;24.20;54.40;;;;;;5043585;28;20560;-78
2022/09/02 12:00:31;;;;;;;2.47;1.65;;;24.50;53.80;;;;;;5035641;28;20570;-78
2022/09/02 12:03:15;;;;;;;6.13;1.95;;;24.60;53.90;;;;;;5043547;28;20210;-78
2022/09/02 12:05:48;;;;;;;2.28;1.92;;;24.40;52.10;;;;;;5040623;28;20198;-78
2022/09/02 12:08:54;;;;;;;4.05;2.50;;;24.40;53.00;;;;;;5055780;28;20222;-78
2022/09/02 12:11:53;;;;;;;4.22;2.03;;;24.30;51.90;;;;;;5056367;28;20699;-77
2022/09/02 12:15:07;;;;;;;5.38;1.80;;;24.60;52.70;;;;;;5058507;28;20210;-77
2022/09/02 12:18:08;;;;;;;4.38;1.80;;;24.60;52.60;;;;;;5037717;28;20199;-77
2022/09/02 12:21:10;;;;;;;2.28;1.63;;;24.70;52.50;;;;;;5040660;28;20202;-77
2022/09/02 12:24:10;;;;;;;6.32;2.00;;;24.80;49.80;;;;;;5030072;28;20209;-77
2022/09/02 12:27:04;;;;;;;2.05;1.33;;;24.60;50.50;;;;;;5047373;28;20559;-77
2022/09/02 12:29:33;;;;;;;8.32;2.00;;;24.50;49.80;;;;;;5046241;28;20683;-77
2022/09/02 12:32:01;;;;;;;2.63;1.83;;;24.50;50.00;;;;;;5045012;28;20229;-77
2022/09/02 12:34:55;;;;;;;3.30;1.55;;;24.50;50.10;;;;;;5043022;28;20226;-77
2022/09/02 12:37:57;;;;;;;4.13;1.63;;;24.60;46.90;;;;;;5045171;28;20229;-77
2022/09/02 12:40:41;;;;;;;8.00;1.80;;;24.80;45.50;;;;;;5042217;28;20210;-77
2022/09/02 12:43:25;;;;;;;5.30;1.67;;;25.50;43.70;;;;;;5055714;28;20210;-77
2022/09/02 12:45:57;;;;;;;26.05;3.00;;;25.70;40.70;;;;;;5040829;28;20198;-77
2022/09/02 12:48:41;;;;;;;5.00;1.42;;;25.70;40.90;;;;;;5041466;28;20674;-77
2022/09/02 12:51:10;;;;;;;29.70;3.13;;;25.90;40.70;;;;;;5058774;28;20296;-78
2022/09/02 12:53:42;;;;;;;5.68;1.52;;;26.40;38.70;;;;;;5045432;28;20194;-77
2022/09/02 12:56:20;;;;;;;9.20;2.00;;;26.40;37.50;;;;;;5039230;28;20680;-77
2022/09/02 12:58:53;;;;;;;2.28;1.73;;;26.70;37.60;;;;;;5040524;28;20631;-77
2022/09/02 13:01:33;;;;;;;35.75;3.72;;;26.40;38.40;;;;;;5054611;28;20206;-77
2022/09/02 13:04:16;;;;;;;7.18;1.98;;;26.80;37.30;;;;;;5059435;28;20210;-77
2022/09/02 13:07:08;;;;;;;6.90;1.83;;;26.70;38.00;;;;;;5046884;28;20199;-77
2022/09/02 13:09:48;;;;;;;14.95;2.20;;;26.70;37.30;;;;;;5037943;28;20241;-77
2022/09/02 13:12:59;;;;;;;13.30;2.03;;;26.50;38.00;;;;;;5042380;28;20205;-77
2022/09/02 13:15:46;;;;;;;1.33;1.23;;;27.40;36.50;;;;;;4966795;28;20221;-77
2022/09/02 13:18:36;;;;;;;12.15;1.65;;;27.60;35.70;;;;;;5039931;28;20237;-77
2022/09/02 13:21:17;;;;;;;2.75;1.35;;;27.30;34.60;;;;;;5054878;28;20198;-77
2022/09/02 13:24:12;;;;;;;11.63;2.05;;;27.10;34.40;;;;;;5037775;28;20202;-77
2022/09/02 13:27:02;;;;;;;9.27;1.88;;;27.40;34.20;;;;;;5041798;28;20660;-77
2022/09/02 13:29:55;;;;;;;3.38;1.20;;;28.00;33.80;;;;;;5051317;28;20226;-77